createdAt,value
2018-09-28T00:01:59.003Z,7.06
2018-09-28T00:04:27.853Z,7.02
2018-09-28T00:06:56.451Z,6.99
2018-09-28T00:09:24.936Z,7.01
2018-09-28T00:11:53.528Z,6.99
2018-09-28T00:14:21.954Z,6.98
2018-09-28T00:16:50.378Z,6.97
2018-09-28T00:19:19.210Z,6.96
2018-09-28T00:21:48.249Z,6.94
2018-09-28T00:24:16.712Z,6.92
2018-09-28T00:26:45.236Z,6.92
2018-09-28T00:29:13.661Z,6.89
2018-09-28T00:31:42.089Z,6.88
2018-09-28T00:34:10.722Z,6.87
2018-09-28T00:36:39.224Z,6.86
2018-09-28T00:39:08.591Z,6.83
2018-09-28T00:41:37.400Z,6.83
2018-09-28T00:44:05.834Z,6.82
2018-09-28T00:46:34.973Z,6.81
2018-09-28T00:49:03.949Z,6.79
2018-09-28T00:51:32.482Z,6.79
2018-09-28T00:54:00.925Z,6.79
2018-09-28T00:56:29.523Z,6.81
2018-09-28T00:58:57.994Z,6.83
2018-09-28T01:01:26.425Z,6.79
2018-09-28T01:03:55.266Z,6.76
2018-09-28T01:06:23.663Z,6.77
2018-09-28T01:08:52.121Z,6.77
2018-09-28T01:11:20.639Z,6.64
2018-09-28T01:13:49.074Z,6.80
2018-09-28T01:16:17.572Z,6.81
2018-09-28T01:18:46.487Z,6.81
2018-09-28T01:21:14.870Z,6.79
2018-09-28T01:23:43.302Z,6.80
2018-09-28T01:26:11.977Z,6.80
2018-09-28T01:28:40.381Z,6.79
2018-09-28T01:31:08.845Z,6.80
2018-09-28T01:33:37.472Z,6.80
2018-09-28T01:36:05.881Z,6.79
2018-09-28T01:38:35.968Z,6.78
2018-09-28T01:41:05.312Z,6.76
2018-09-28T01:43:33.867Z,6.74
2018-09-28T01:46:03.300Z,6.74
2018-09-28T01:48:32.379Z,6.74
2018-09-28T01:51:00.807Z,6.76
2018-09-28T01:53:29.249Z,6.76
2018-09-28T01:55:58.043Z,6.75
2018-09-28T01:58:26.452Z,6.73
2018-09-28T02:00:54.919Z,6.72
2018-09-28T02:03:23.490Z,6.68
2018-09-28T02:05:52.435Z,6.67
2018-09-28T02:08:20.908Z,6.64
2018-09-28T02:10:49.553Z,6.61
2018-09-28T02:13:17.975Z,6.59
2018-09-28T02:15:46.480Z,6.57
2018-09-28T02:18:14.949Z,6.56
2018-09-28T02:20:43.505Z,6.56
2018-09-28T02:23:11.925Z,6.56
2018-09-28T02:25:40.459Z,6.56
2018-09-28T02:28:08.857Z,6.56
2018-09-28T02:30:37.304Z,6.57
2018-09-28T02:33:06.041Z,6.54
2018-09-28T02:35:34.483Z,6.54
2018-09-28T02:38:03.627Z,6.55
2018-09-28T02:40:32.781Z,6.56
2018-09-28T02:43:01.196Z,6.56
2018-09-28T02:45:29.628Z,6.55
2018-09-28T02:47:58.389Z,6.51
2018-09-28T02:50:26.819Z,6.47
2018-09-28T02:52:55.369Z,6.44
2018-09-28T02:55:24.255Z,6.40
2018-09-28T02:57:52.788Z,6.33
2018-09-28T03:00:21.356Z,6.29
2018-09-28T03:02:49.999Z,6.20
2018-09-28T03:05:18.443Z,6.12
2018-09-28T03:07:46.870Z,6.04
2018-09-28T03:10:15.544Z,5.98
2018-09-28T03:12:43.973Z,5.94
2018-09-28T03:15:12.442Z,5.90
2018-09-28T03:17:40.930Z,5.85
2018-09-28T03:20:09.369Z,5.78
2018-09-28T03:22:37.804Z,5.74
2018-09-28T03:25:06.607Z,5.70
2018-09-28T03:27:35.026Z,5.50
2018-09-28T03:30:04.056Z,5.62
2018-09-28T03:32:32.731Z,5.61
2018-09-28T03:35:01.329Z,5.58
2018-09-28T03:37:29.789Z,5.56
2018-09-28T03:39:58.487Z,5.58
2018-09-28T03:42:27.084Z,5.63
2018-09-28T03:44:55.542Z,5.64
2018-09-28T03:47:24.053Z,5.67
2018-09-28T03:49:52.434Z,5.69
2018-09-28T03:52:20.843Z,5.68
2018-09-28T03:54:49.459Z,5.67
2018-09-28T03:57:17.856Z,5.63
2018-09-28T03:59:46.298Z,5.63
2018-09-28T04:02:15.049Z,5.66
2018-09-28T04:04:43.450Z,5.67
2018-09-28T04:07:12.086Z,5.65
2018-09-28T04:09:40.571Z,5.64
2018-09-28T04:12:09.602Z,5.62
2018-09-28T04:14:38.760Z,5.59
2018-09-28T04:17:07.590Z,5.54
2018-09-28T04:19:36.059Z,5.50
2018-09-28T04:22:04.562Z,5.49
2018-09-28T04:24:33.310Z,5.49
2018-09-28T04:27:01.700Z,5.46
2018-09-28T04:29:30.142Z,5.45
2018-09-28T04:31:59.024Z,5.43
2018-09-28T04:34:27.396Z,5.39
2018-09-28T04:36:55.817Z,5.38
2018-09-28T04:39:24.414Z,5.35
2018-09-28T04:41:52.799Z,5.34
2018-09-28T04:44:21.510Z,5.31
2018-09-28T04:46:49.982Z,5.31
2018-09-28T04:49:18.411Z,5.31
2018-09-28T04:51:46.915Z,5.30
2018-09-28T04:54:15.610Z,5.29
2018-09-28T04:56:44.090Z,5.29
2018-09-28T04:59:12.594Z,5.31
2018-09-28T05:01:41.335Z,5.32
2018-09-28T05:04:10.310Z,5.30
2018-09-28T05:06:38.786Z,5.29
2018-09-28T05:09:13.021Z,5.27
2018-09-28T05:11:41.456Z,5.30
2018-09-28T05:14:10.265Z,5.36
2018-09-28T05:16:38.998Z,5.42
2018-09-28T05:19:07.633Z,5.46
2018-09-28T05:21:36.047Z,5.54
2018-09-28T05:24:05.376Z,5.62
2018-09-28T05:26:33.823Z,5.71
2018-09-28T05:29:02.269Z,5.80
2018-09-28T05:31:31.253Z,5.89
2018-09-28T05:33:59.722Z,5.95
2018-09-28T05:36:28.115Z,6.01
2018-09-28T05:38:56.667Z,6.10
2018-09-28T05:41:25.101Z,6.19
2018-09-28T05:43:53.549Z,6.23
2018-09-28T05:46:22.294Z,6.26
2018-09-28T05:48:50.835Z,6.34
2018-09-28T05:51:19.297Z,6.39
2018-09-28T05:53:48.472Z,6.44
2018-09-28T05:56:16.950Z,6.29
2018-09-28T05:58:50.512Z,6.49
2018-09-28T06:01:24.320Z,6.52
2018-09-28T06:03:58.106Z,6.54
2018-09-28T06:06:26.870Z,6.53
2018-09-28T06:08:55.530Z,6.49
2018-09-28T06:11:23.930Z,6.49
2018-09-28T06:13:52.637Z,6.56
2018-09-28T06:16:21.060Z,6.64
2018-09-28T06:18:49.490Z,6.67
2018-09-28T06:21:18.504Z,6.65
2018-09-28T06:23:46.918Z,6.65
2018-09-28T06:26:15.316Z,6.77
2018-09-28T06:28:44.135Z,7.13
2018-09-28T06:31:12.532Z,7.59
2018-09-28T06:33:40.958Z,8.00
2018-09-28T06:36:10.289Z,8.48
2018-09-28T06:38:38.727Z,8.64
2018-09-28T06:41:07.122Z,8.49
2018-09-28T06:43:35.682Z,8.25
2018-09-28T06:46:04.305Z,8.21
2018-09-28T06:48:33.244Z,8.18
2018-09-28T06:51:02.051Z,8.08
2018-09-28T06:53:30.726Z,8.04
2018-09-28T06:55:59.166Z,8.01
2018-09-28T06:58:28.051Z,7.87
2018-09-28T07:00:56.633Z,7.80
2018-09-28T07:03:25.101Z,7.73
2018-09-28T07:05:53.874Z,7.65
2018-09-28T07:08:22.203Z,7.41
2018-09-28T07:10:50.736Z,7.61
2018-09-28T07:13:19.632Z,7.76
2018-09-28T07:15:48.037Z,8.03
2018-09-28T07:18:16.586Z,8.40
2018-09-28T07:20:45.110Z,8.82
2018-09-28T07:23:14.140Z,9.20
2018-09-28T07:25:42.529Z,9.55
2018-09-28T07:28:11.053Z,9.82
2018-09-28T07:30:40.015Z,10.08
2018-09-28T07:33:08.571Z,10.17
2018-09-28T07:35:37.398Z,10.13
2018-09-28T07:38:05.821Z,10.20
2018-09-28T07:40:34.304Z,10.19
2018-09-28T07:43:03.546Z,10.14
2018-09-28T07:45:31.964Z,9.92
2018-09-28T07:48:00.449Z,9.69
2018-09-28T07:50:29.034Z,9.63
2018-09-28T07:52:57.450Z,9.47
2018-09-28T07:55:26.012Z,9.33
2018-09-28T07:57:54.629Z,9.26
2018-09-28T08:00:23.282Z,9.32
2018-09-28T08:02:51.770Z,9.33
2018-09-28T08:05:20.466Z,9.46
2018-09-28T08:07:48.898Z,9.60
2018-09-28T08:10:17.318Z,9.86
2018-09-28T08:12:46.442Z,10.36
2018-09-28T08:15:14.851Z,10.62
2018-09-28T08:17:43.286Z,10.94
2018-09-28T08:20:12.226Z,11.37
2018-09-28T08:22:41.698Z,11.41
2018-09-28T08:25:10.402Z,11.39
2018-09-28T08:27:39.185Z,11.71
2018-09-28T08:30:08.765Z,11.88
2018-09-28T08:32:37.277Z,12.17
2018-09-28T08:35:06.221Z,12.51
2018-09-28T08:37:34.799Z,12.68
2018-09-28T08:40:03.396Z,12.66
2018-09-28T08:42:32.048Z,12.45
2018-09-28T08:45:00.703Z,12.44
2018-09-28T08:47:29.237Z,12.50
2018-09-28T08:49:58.426Z,12.37
2018-09-28T08:52:33.641Z,11.97
2018-09-28T08:55:02.490Z,11.62
2018-09-28T08:57:31.036Z,11.48
2018-09-28T08:59:59.432Z,11.58
2018-09-28T09:02:28.431Z,12.24
2018-09-28T09:04:56.910Z,12.98
2018-09-28T09:07:25.319Z,13.32
2018-09-28T09:10:10.771Z,13.53
2018-09-28T09:12:39.590Z,13.37
2018-09-28T09:15:08.326Z,12.97
2018-09-28T09:17:37.526Z,12.85
2018-09-28T09:20:06.226Z,12.52
2018-09-28T09:22:34.752Z,12.14
2018-09-28T09:25:03.444Z,11.83
2018-09-28T09:27:32.585Z,11.53
2018-09-28T09:30:01.186Z,11.36
2018-09-28T09:32:30.017Z,11.52
2018-09-28T09:34:58.744Z,12.04
2018-09-28T09:37:27.329Z,12.62
2018-09-28T09:39:55.948Z,12.86
2018-09-28T09:42:24.742Z,13.22
2018-09-28T09:44:53.139Z,13.31
2018-09-28T09:47:22.618Z,13.51
2018-09-28T09:49:51.130Z,13.82
2018-09-28T09:52:19.578Z,13.96
2018-09-28T09:54:48.299Z,14.46
2018-09-28T09:57:17.097Z,14.85
2018-09-28T09:59:45.550Z,15.31
2018-09-28T10:02:19.574Z,15.44
2018-09-28T11:25:48.339Z,14.71
2018-09-28T11:28:16.747Z,14.63
2018-09-28T11:30:45.161Z,14.74
2018-09-28T11:33:14.053Z,15.03
2018-09-28T11:35:42.522Z,15.04
2018-09-28T11:38:10.923Z,14.65
2018-09-28T11:40:39.690Z,14.53
2018-09-28T11:43:08.233Z,14.40
2018-09-28T11:45:36.654Z,13.94
2018-09-28T11:48:06.053Z,13.54
2018-09-28T11:50:34.487Z,13.27
2018-09-28T11:53:03.313Z,12.81
2018-09-28T11:55:32.194Z,12.83
2018-09-28T11:58:00.611Z,13.08
2018-09-28T12:00:29.086Z,13.12
2018-09-28T12:02:57.582Z,12.96
2018-09-28T12:05:26.658Z,12.45
2018-09-28T12:07:55.125Z,11.67
2018-09-28T12:10:23.870Z,11.04
2018-09-28T12:12:52.678Z,10.75
2018-09-28T12:15:21.139Z,10.45
2018-09-28T12:17:49.734Z,10.51
2018-09-28T12:20:18.240Z,10.48
2018-09-28T12:22:46.634Z,10.50
2018-09-28T12:25:15.416Z,10.47
2018-09-28T12:27:44.315Z,10.24
2018-09-28T12:30:12.776Z,10.18
2018-09-28T12:32:41.367Z,9.87
2018-09-28T12:35:09.771Z,9.73
2018-09-28T12:37:39.154Z,9.71
2018-09-28T12:40:08.106Z,9.73
2018-09-28T12:42:36.573Z,9.77
2018-09-28T12:45:05.159Z,9.84
2018-09-28T12:47:33.779Z,10.18
2018-09-28T12:50:02.315Z,11.46
2018-09-28T12:52:30.730Z,12.90
2018-09-28T12:54:59.429Z,14.07
2018-09-28T12:57:27.836Z,14.72
2018-09-28T12:59:56.465Z,15.41
2018-09-28T13:02:25.822Z,15.63
2018-09-28T13:04:54.265Z,15.38
2018-09-28T13:07:22.702Z,15.76
2018-09-28T13:09:51.450Z,16.08
2018-09-28T13:12:19.903Z,16.22
2018-09-28T13:14:48.667Z,15.55
2018-09-28T13:17:17.584Z,14.52
2018-09-28T13:19:46.055Z,13.56
2018-09-28T13:22:14.472Z,12.80
2018-09-28T13:24:43.294Z,12.28
2018-09-28T13:27:11.786Z,11.84
2018-09-28T13:29:40.468Z,11.46
2018-09-28T13:32:09.337Z,11.23
2018-09-28T13:34:37.848Z,11.03
2018-09-28T13:37:06.739Z,10.74
2018-09-28T13:39:35.446Z,10.54
2018-09-28T13:42:03.868Z,10.38
2018-09-28T13:44:32.459Z,10.24
2018-09-28T13:47:00.947Z,10.14
2018-09-28T13:49:29.408Z,10.02
2018-09-28T13:51:57.930Z,9.89
2018-09-28T13:54:26.627Z,9.76
2018-09-28T13:56:55.107Z,9.67
2018-09-28T13:59:23.534Z,9.60
2018-09-28T14:01:52.306Z,9.55
2018-09-28T14:04:20.819Z,9.57
2018-09-28T14:06:49.343Z,9.61
2018-09-28T14:09:17.735Z,9.66
2018-09-28T14:11:46.155Z,10.24
2018-09-28T14:14:14.597Z,11.95
2018-09-28T14:16:43.238Z,13.34
2018-09-28T14:19:11.649Z,14.74
2018-09-28T14:21:40.961Z,15.63
2018-09-28T14:24:09.665Z,14.12
2018-09-28T14:26:38.104Z,17.32
2018-09-28T14:29:06.551Z,16.71
2018-09-28T14:31:35.460Z,15.79
2018-09-28T14:34:04.174Z,15.07
2018-09-28T14:36:32.608Z,14.38
2018-09-28T14:39:01.428Z,13.83
2018-09-28T14:41:29.834Z,14.44
2018-09-28T14:43:58.235Z,14.80
2018-09-28T14:46:28.039Z,15.12
2018-09-28T14:48:56.870Z,14.91
2018-09-28T14:51:25.191Z,15.12
2018-09-28T14:53:54.195Z,15.97
2018-09-28T14:56:22.708Z,16.25
2018-09-28T14:58:51.126Z,15.58
2018-09-28T15:01:20.269Z,15.56
2018-09-28T15:03:48.815Z,15.70
2018-09-28T15:06:17.258Z,15.63
2018-09-28T15:08:46.301Z,16.05
2018-09-28T15:11:14.696Z,15.67
2018-09-28T15:13:43.127Z,14.83
2018-09-28T15:16:11.704Z,14.11
2018-09-28T15:18:40.795Z,13.45
2018-09-28T15:21:14.944Z,12.79
2018-09-28T15:23:43.573Z,12.23
2018-09-28T15:26:11.994Z,11.89
2018-09-28T15:28:40.883Z,11.66
2018-09-28T15:31:09.318Z,11.41
2018-09-28T15:33:38.199Z,11.19
2018-09-28T15:36:07.551Z,11.02
2018-09-28T15:38:35.978Z,10.88
2018-09-28T15:41:04.414Z,10.74
2018-09-28T15:43:32.943Z,10.58
2018-09-28T15:46:01.391Z,10.36
2018-09-28T15:48:29.802Z,10.20
2018-09-28T15:50:58.450Z,10.13
2018-09-28T15:53:26.936Z,10.21
2018-09-28T15:55:55.351Z,10.25
2018-09-28T15:58:24.271Z,10.22
2018-09-28T16:00:52.658Z,10.16
2018-09-28T16:03:21.056Z,10.05
2018-09-28T16:05:50.049Z,9.91
2018-09-28T16:08:18.669Z,9.78
2018-09-28T16:10:47.122Z,9.65
2018-09-28T16:13:15.742Z,9.54
2018-09-28T16:15:44.132Z,9.44
2018-09-28T16:18:12.608Z,9.35
2018-09-28T16:20:41.487Z,9.25
2018-09-28T16:23:09.970Z,9.15
2018-09-28T16:25:38.346Z,9.07
2018-09-28T16:28:13.274Z,8.94
2018-09-28T16:30:41.654Z,8.83
2018-09-28T16:33:10.167Z,8.71
2018-09-28T16:35:39.894Z,8.59
2018-09-28T16:38:09.170Z,8.49
2018-09-28T16:40:37.569Z,8.40
2018-09-28T16:43:06.141Z,8.31
2018-09-28T16:45:34.556Z,8.20
2018-09-28T16:48:02.954Z,8.15
2018-09-28T16:50:31.455Z,8.10
2018-09-28T16:52:59.881Z,8.07
2018-09-28T16:55:28.285Z,8.02
2018-09-28T16:57:57.042Z,7.99
2018-09-28T17:00:25.372Z,7.93
2018-09-28T17:02:53.786Z,7.84
2018-09-28T17:05:23.595Z,7.83
2018-09-28T17:07:52.043Z,7.80
2018-09-28T17:10:20.475Z,7.75
2018-09-28T17:12:49.143Z,7.68
2018-09-28T17:15:17.706Z,7.64
2018-09-28T17:17:46.433Z,7.57
2018-09-28T17:20:15.507Z,7.52
2018-09-28T17:22:43.906Z,7.48
2018-09-28T17:25:12.416Z,7.47
2018-09-28T17:27:41.142Z,7.51
2018-09-28T17:30:09.566Z,7.50
2018-09-28T17:32:38.039Z,7.45
2018-09-28T17:35:07.034Z,7.38
2018-09-28T17:37:35.894Z,7.32
2018-09-28T17:40:04.354Z,7.30
2018-09-28T17:42:33.259Z,7.26
2018-09-28T17:45:01.707Z,7.21
2018-09-28T17:47:30.129Z,7.18
2018-09-28T17:49:59.023Z,7.14
2018-09-28T17:52:27.515Z,7.08
2018-09-28T17:54:55.944Z,7.04
2018-09-28T17:57:24.766Z,7.03
2018-09-28T17:59:53.201Z,7.03
2018-09-28T18:02:21.640Z,7.02
2018-09-28T18:04:50.515Z,6.97
2018-09-28T18:07:18.959Z,6.95
2018-09-28T18:09:47.359Z,6.95
2018-09-28T18:12:16.267Z,6.97
2018-09-28T18:14:44.716Z,6.97
2018-09-28T18:17:13.286Z,6.94
2018-09-28T18:19:41.856Z,6.94
2018-09-28T18:22:10.303Z,6.92
2018-09-28T18:24:38.732Z,6.89
2018-09-28T18:27:07.525Z,6.82
2018-09-28T18:29:35.999Z,6.78
2018-09-28T18:32:11.116Z,6.77
2018-09-28T18:34:39.674Z,6.76
2018-09-28T18:37:08.242Z,6.73
2018-09-28T18:39:37.296Z,6.67
2018-09-28T18:42:06.115Z,6.62
2018-09-28T18:44:34.507Z,6.57
2018-09-28T18:47:03.375Z,6.52
2018-09-28T18:49:32.082Z,6.47
2018-09-28T18:52:00.510Z,6.51
2018-09-28T18:54:29.452Z,6.49
2018-09-28T18:56:57.895Z,6.44
2018-09-28T18:59:26.869Z,6.47
2018-09-28T19:02:02.246Z,6.47
2018-09-28T19:04:30.707Z,6.49
2018-09-28T19:06:59.114Z,6.46
2018-09-28T19:09:27.616Z,6.43
2018-09-28T19:11:56.041Z,6.40
2018-09-28T19:14:24.482Z,6.38
2018-09-28T19:16:53.476Z,6.38
2018-09-28T19:19:21.870Z,6.39
2018-09-28T19:21:50.311Z,6.38
2018-09-28T19:24:19.810Z,6.38
2018-09-28T19:26:48.218Z,6.39
2018-09-28T19:29:16.900Z,6.39
2018-09-28T19:31:45.654Z,6.42
2018-09-28T19:34:14.339Z,6.43
2018-09-28T19:36:42.929Z,6.42
2018-09-28T19:39:11.871Z,6.42
2018-09-28T19:41:41.279Z,6.39
2018-09-28T19:44:10.184Z,6.39
2018-09-28T19:46:38.683Z,6.36
2018-09-28T19:49:07.119Z,6.33
2018-09-28T19:51:35.561Z,6.31
2018-09-28T19:54:04.355Z,6.29
2018-09-28T19:56:32.770Z,6.26
2018-09-28T19:59:01.159Z,6.22
2018-09-28T20:01:30.083Z,6.19
2018-09-28T20:03:58.491Z,6.15
2018-09-28T20:06:26.899Z,6.12
2018-09-28T20:08:55.444Z,6.07
2018-09-28T20:11:23.931Z,6.02
2018-09-28T20:13:52.334Z,6.00
2018-09-28T20:16:20.982Z,5.98
2018-09-28T20:18:49.433Z,5.94
2018-09-28T20:21:17.827Z,5.92
2018-09-28T20:23:46.831Z,5.89
2018-09-28T20:26:15.279Z,5.86
2018-09-28T20:28:43.687Z,5.83
2018-09-28T20:31:12.562Z,5.78
2018-09-28T20:33:40.965Z,5.74
2018-09-28T20:36:09.362Z,5.70
2018-09-28T20:38:38.401Z,5.67
2018-09-28T20:41:06.813Z,5.67
2018-09-28T20:43:35.897Z,5.65
2018-09-28T20:46:04.854Z,5.62
2018-09-28T20:48:33.251Z,5.58
2018-09-28T20:51:01.655Z,5.54
2018-09-28T20:53:31.243Z,5.51
2018-09-28T20:55:59.726Z,5.50
2018-09-28T20:58:28.132Z,5.48
2018-09-28T21:00:57.349Z,5.46
2018-09-28T21:03:25.826Z,5.42
2018-09-28T21:05:54.309Z,5.38
2018-09-28T21:08:22.792Z,5.33
2018-09-28T21:10:51.273Z,5.29
2018-09-28T21:13:19.837Z,5.26
2018-09-28T21:15:48.306Z,5.28
2018-09-28T21:18:16.792Z,5.29
2018-09-28T21:20:45.286Z,5.27
2018-09-28T21:23:14.069Z,5.26
2018-09-28T21:25:43.334Z,5.22
2018-09-28T21:28:11.730Z,5.19
2018-09-28T21:30:40.503Z,5.17
2018-09-28T21:33:08.935Z,5.16
2018-09-28T21:35:37.351Z,5.16
2018-09-28T21:38:06.015Z,5.14
2018-09-28T21:40:34.463Z,5.14
2018-09-28T21:43:02.874Z,5.14
2018-09-28T21:45:32.101Z,5.12
2018-09-28T21:48:00.598Z,5.12
2018-09-28T21:50:29.013Z,5.09
2018-09-28T21:52:57.964Z,5.04
2018-09-28T21:55:26.400Z,5.02
2018-09-28T21:57:54.827Z,5.00
2018-09-28T22:00:24.131Z,4.97
2018-09-28T22:02:52.542Z,4.93
2018-09-28T22:05:20.989Z,4.89
2018-09-28T22:07:49.661Z,4.84
2018-09-28T22:10:18.074Z,4.81
2018-09-28T22:12:46.454Z,4.79
2018-09-28T22:15:15.099Z,4.74
2018-09-28T22:17:43.500Z,4.70
2018-09-28T22:20:12.093Z,4.68
2018-09-28T22:22:40.966Z,4.66
2018-09-28T22:25:09.387Z,4.62
2018-09-28T22:27:38.140Z,4.56
2018-09-28T22:30:07.989Z,4.53
2018-09-28T22:32:36.382Z,4.50
2018-09-28T22:35:04.791Z,4.47
2018-09-28T22:37:33.998Z,4.44
2018-09-28T22:40:02.462Z,4.39
2018-09-28T22:42:31.074Z,4.38
2018-09-28T22:45:00.032Z,4.35
2018-09-28T22:47:29.196Z,4.36
2018-09-28T22:49:57.603Z,4.35
2018-09-28T22:52:26.338Z,4.33
2018-09-28T22:54:55.370Z,4.29
2018-09-28T22:57:23.758Z,4.29
2018-09-28T22:59:52.470Z,4.28
2018-09-28T23:02:20.858Z,4.24
2018-09-28T23:04:49.255Z,4.22
2018-09-28T23:07:18.098Z,4.18
2018-09-28T23:09:46.504Z,4.14
2018-09-28T23:12:14.913Z,4.09
2018-09-28T23:14:43.418Z,3.90
2018-09-28T23:17:11.825Z,4.05
2018-09-28T23:19:40.229Z,4.01
2018-09-28T23:22:08.822Z,4.01
2018-09-28T23:24:37.215Z,3.98
2018-09-28T23:27:05.723Z,3.96
2018-09-28T23:29:34.406Z,3.94
2018-09-28T23:32:03.092Z,3.89
2018-09-28T23:34:31.543Z,3.87
2018-09-28T23:37:00.085Z,3.87
2018-09-28T23:39:28.480Z,3.85
2018-09-28T23:41:56.882Z,3.83
2018-09-28T23:44:25.363Z,3.79
2018-09-28T23:46:53.759Z,3.77
2018-09-28T23:49:23.181Z,3.73
2018-09-28T23:51:51.954Z,3.71
2018-09-28T23:54:20.343Z,3.67
2018-09-28T23:56:48.923Z,3.62
2018-09-28T23:59:17.427Z,3.61
